createdAt,value
2018-03-18T00:04:45.598Z,19.63
2018-03-18T00:07:20.406Z,22.53
2018-03-18T00:09:54.905Z,23.10
2018-03-18T00:12:28.914Z,22.97
2018-03-18T00:15:03.405Z,24.53
2018-03-18T00:17:38.292Z,21.30
2018-03-18T00:20:13.834Z,27.83
2018-03-18T00:22:47.962Z,25.40
2018-03-18T00:25:21.725Z,24.90
2018-03-18T00:27:56.650Z,22.97
2018-03-18T00:30:31.783Z,20.77
2018-03-18T00:33:06.070Z,24.47
2018-03-18T00:35:40.641Z,23.23
2018-03-18T00:38:15.586Z,22.87
2018-03-18T00:40:50.193Z,22.97
2018-03-18T00:43:24.098Z,19.17
2018-03-18T00:45:59.431Z,25.80
2018-03-18T00:48:33.752Z,23.10
2018-03-18T00:51:08.398Z,26.13
2018-03-18T00:53:43.882Z,23.23
2018-03-18T00:56:18.998Z,20.90
2018-03-18T00:58:53.253Z,22.07
2018-03-18T01:01:27.686Z,25.77
2018-03-18T01:04:02.642Z,29.27
2018-03-18T01:06:37.365Z,23.83
2018-03-18T01:09:12.081Z,20.67
2018-03-18T01:11:47.389Z,24.13
2018-03-18T01:14:21.434Z,20.90
2018-03-18T01:16:55.085Z,24.40
2018-03-18T01:19:29.149Z,26.33
2018-03-18T01:22:03.713Z,24.40
2018-03-18T01:24:37.887Z,20.37
2018-03-18T01:27:12.515Z,29.73
2018-03-18T01:29:46.629Z,25.47
2018-03-18T01:32:22.078Z,24.23
2018-03-18T01:34:56.605Z,21.07
2018-03-18T01:37:31.010Z,25.80
2018-03-18T01:40:05.129Z,21.27
2018-03-18T01:42:39.757Z,25.53
2018-03-18T01:45:14.466Z,22.13
2018-03-18T01:47:48.330Z,22.87
2018-03-18T01:50:22.511Z,19.20
2018-03-18T01:53:09.300Z,19.43
2018-03-18T01:55:43.716Z,17.63
2018-03-18T01:58:18.383Z,20.67
2018-03-18T02:00:52.562Z,21.90
2018-03-18T02:03:26.997Z,22.03
2018-03-18T02:06:01.396Z,25.83
2018-03-18T02:08:35.415Z,21.27
2018-03-18T02:11:09.674Z,19.57
2018-03-18T02:13:44.087Z,26.73
2018-03-18T02:16:19.589Z,18.70
2018-03-18T02:18:54.108Z,18.93
2018-03-18T02:21:30.632Z,19.63
2018-03-18T02:24:05.267Z,19.70
2018-03-18T02:26:40.161Z,22.73
2018-03-18T02:29:13.966Z,19.17
2018-03-18T02:31:48.070Z,19.07
2018-03-18T02:34:22.588Z,19.13
2018-03-18T02:36:56.737Z,19.53
2018-03-18T02:39:31.267Z,16.73
2018-03-18T02:42:05.629Z,20.70
2018-03-18T02:44:40.632Z,22.13
2018-03-18T02:47:14.735Z,17.13
2018-03-18T02:49:49.396Z,17.30
2018-03-18T02:52:23.539Z,20.20
2018-03-18T02:54:57.971Z,17.93
2018-03-18T02:57:31.753Z,21.13
2018-03-18T03:00:06.289Z,18.57
2018-03-18T03:02:40.282Z,19.00
2018-03-18T03:05:14.666Z,15.77
2018-03-18T03:07:49.214Z,18.67
2018-03-18T03:10:23.352Z,18.37
2018-03-18T03:12:57.345Z,21.97
2018-03-18T03:15:31.849Z,21.53
2018-03-18T03:18:05.886Z,19.03
2018-03-18T03:20:40.289Z,18.23
2018-03-18T03:23:14.442Z,16.93
2018-03-18T03:25:48.977Z,17.83
2018-03-18T03:28:22.721Z,16.07
2018-03-18T03:30:56.550Z,18.10
2018-03-18T03:33:30.669Z,17.67
2018-03-18T03:36:05.248Z,16.27
2018-03-18T03:38:38.966Z,17.30
2018-03-18T03:41:12.593Z,16.57
2018-03-18T03:43:46.594Z,18.40
2018-03-18T03:46:21.019Z,16.97
2018-03-18T03:48:54.757Z,17.67
2018-03-18T03:51:28.473Z,16.87
2018-03-18T03:54:02.545Z,15.50
2018-03-18T03:56:37.066Z,19.63
2018-03-18T03:59:11.721Z,18.60
2018-03-18T04:01:45.802Z,17.53
2018-03-18T04:04:21.469Z,19.40
2018-03-18T04:06:55.152Z,16.83
2018-03-18T04:09:29.788Z,16.23
2018-03-18T04:12:03.666Z,14.90
2018-03-18T04:14:39.453Z,17.67
2018-03-18T04:17:13.944Z,16.80
2018-03-18T04:19:48.744Z,17.93
2018-03-18T04:22:22.345Z,19.07
2018-03-18T04:24:57.325Z,17.23
2018-03-18T04:27:32.769Z,16.60
2018-03-18T04:30:07.486Z,15.47
2018-03-18T04:32:41.506Z,18.73
2018-03-18T04:35:15.650Z,16.10
2018-03-18T04:37:50.137Z,15.80
2018-03-18T04:40:25.058Z,18.90
2018-03-18T04:42:59.583Z,16.70
2018-03-18T04:45:33.620Z,15.00
2018-03-18T04:48:08.079Z,17.03
2018-03-18T04:50:41.869Z,18.37
2018-03-18T04:53:15.646Z,16.03
2018-03-18T04:55:49.701Z,19.20
2018-03-18T04:58:24.100Z,17.63
2018-03-18T05:00:57.798Z,16.17
2018-03-18T05:03:32.523Z,16.10
2018-03-18T05:06:06.800Z,14.67
2018-03-18T05:08:41.462Z,17.67
2018-03-18T05:11:15.970Z,17.00
2018-03-18T05:13:50.651Z,16.50
2018-03-18T05:16:24.797Z,16.10
2018-03-18T05:18:59.514Z,17.43
2018-03-18T05:21:33.335Z,16.50
2018-03-18T05:24:07.010Z,16.83
2018-03-18T05:26:41.877Z,20.50
2018-03-18T05:29:15.572Z,14.57
2018-03-18T05:31:49.583Z,16.93
2018-03-18T05:34:24.784Z,15.80
2018-03-18T05:36:59.133Z,16.43
2018-03-18T05:39:33.451Z,17.03
2018-03-18T05:42:07.575Z,14.90
2018-03-18T05:44:42.372Z,17.43
2018-03-18T05:47:17.042Z,16.67
2018-03-18T05:49:50.837Z,16.50
2018-03-18T05:52:24.871Z,19.37
2018-03-18T05:54:59.444Z,15.97
2018-03-18T05:57:34.280Z,14.20
2018-03-18T06:00:09.034Z,16.67
2018-03-18T06:02:42.750Z,15.17
2018-03-18T06:05:17.351Z,15.77
2018-03-18T06:07:51.558Z,17.60
2018-03-18T06:10:26.081Z,15.73
2018-03-18T06:12:59.968Z,17.40
2018-03-18T06:15:34.582Z,15.93
2018-03-18T06:18:09.551Z,17.77
2018-03-18T06:20:44.763Z,15.10
2018-03-18T06:23:18.735Z,16.70
2018-03-18T06:25:52.506Z,17.50
2018-03-18T06:28:26.234Z,14.07
2018-03-18T06:31:00.314Z,20.70
2018-03-18T06:33:34.336Z,16.03
2018-03-18T06:36:09.821Z,13.83
2018-03-18T06:38:43.893Z,13.90
2018-03-18T06:41:17.778Z,16.50
2018-03-18T06:43:51.427Z,14.30
2018-03-18T06:46:25.358Z,17.33
2018-03-18T06:49:00.538Z,15.83
2018-03-18T06:51:34.353Z,16.87
2018-03-18T06:54:09.072Z,18.70
2018-03-18T06:56:43.862Z,17.03
2018-03-18T06:59:17.974Z,17.20
2018-03-18T07:01:52.438Z,15.83
2018-03-18T07:04:26.655Z,14.80
2018-03-18T07:07:00.407Z,15.00
2018-03-18T07:09:34.973Z,16.53
2018-03-18T07:12:08.889Z,15.20
2018-03-18T07:14:44.010Z,15.37
2018-03-18T07:17:19.230Z,14.80
2018-03-18T07:19:54.079Z,14.90
2018-03-18T07:22:27.962Z,14.63
2018-03-18T07:25:02.930Z,13.80
2018-03-18T07:27:37.545Z,15.77
2018-03-18T07:30:12.989Z,18.23
2018-03-18T07:32:46.901Z,19.00
2018-03-18T07:35:22.539Z,15.57
2018-03-18T07:37:57.058Z,17.90
2018-03-18T07:40:30.729Z,19.03
2018-03-18T07:43:06.077Z,18.67
2018-03-18T07:45:40.434Z,14.90
2018-03-18T07:48:14.865Z,17.40
2018-03-18T07:50:48.537Z,15.97
2018-03-18T07:53:22.347Z,19.93
2018-03-18T07:55:57.190Z,16.27
2018-03-18T07:58:32.626Z,17.53
2018-03-18T08:01:07.690Z,16.27
2018-03-18T08:03:42.439Z,18.23
2018-03-18T08:06:16.190Z,18.13
2018-03-18T08:08:49.925Z,16.30
2018-03-18T08:11:24.003Z,17.90
2018-03-18T08:13:59.255Z,16.67
2018-03-18T08:16:33.467Z,17.70
2018-03-18T08:19:07.888Z,17.73
2018-03-18T08:21:41.753Z,17.57
2018-03-18T08:24:15.517Z,16.60
2018-03-18T08:26:49.641Z,19.53
2018-03-18T08:29:24.948Z,13.83
2018-03-18T08:32:00.118Z,17.03
2018-03-18T08:34:34.202Z,18.30
2018-03-18T08:37:09.135Z,15.37
2018-03-18T08:39:43.253Z,15.93
2018-03-18T08:42:28.921Z,15.60
2018-03-18T08:45:02.781Z,19.07
2018-03-18T08:47:36.881Z,14.93
2018-03-18T08:50:11.370Z,17.47
2018-03-18T08:52:45.050Z,13.60
2018-03-18T08:55:18.686Z,16.30
2018-03-18T08:57:54.450Z,14.10
2018-03-18T09:00:29.073Z,17.47
2018-03-18T09:03:02.787Z,13.53
2018-03-18T09:05:37.981Z,16.10
2018-03-18T09:08:12.731Z,14.93
2018-03-18T09:10:47.172Z,16.70
2018-03-18T09:13:21.363Z,17.17
2018-03-18T09:15:55.853Z,17.58
2018-03-18T09:18:29.893Z,15.43
2018-03-18T09:21:05.097Z,13.63
2018-03-18T09:23:39.381Z,14.97
2018-03-18T09:26:14.022Z,17.50
2018-03-18T09:28:47.773Z,15.63
2018-03-18T09:31:21.482Z,17.60
2018-03-18T09:33:56.418Z,17.07
2018-03-18T09:36:31.025Z,14.97
2018-03-18T09:39:05.941Z,15.50
2018-03-18T09:41:40.571Z,13.97
2018-03-18T09:44:15.128Z,16.20
2018-03-18T09:46:49.659Z,16.50
2018-03-18T09:49:24.055Z,14.93
2018-03-18T09:51:58.194Z,13.00
2018-03-18T09:54:32.395Z,17.47
2018-03-18T09:57:06.765Z,13.93
2018-03-18T09:59:41.745Z,14.53
2018-03-18T10:02:16.169Z,15.97
2018-03-18T10:04:49.935Z,12.83
2018-03-18T10:07:23.570Z,17.60
2018-03-18T10:09:57.937Z,14.17
2018-03-18T10:12:32.054Z,16.57
2018-03-18T10:15:06.034Z,14.37
2018-03-18T10:17:40.505Z,15.57
2018-03-18T10:20:14.319Z,14.03
2018-03-18T10:22:48.039Z,14.93
2018-03-18T10:25:22.258Z,14.77
2018-03-18T10:27:56.810Z,17.10
2018-03-18T10:30:30.502Z,16.73
2018-03-18T10:33:04.412Z,16.90
2018-03-18T10:35:38.411Z,16.90
2018-03-18T10:38:13.750Z,17.07
2018-03-18T10:40:47.766Z,17.17
2018-03-18T10:43:22.264Z,14.40
2018-03-18T10:45:57.322Z,22.83
2018-03-18T10:48:31.943Z,20.13
2018-03-18T10:51:06.991Z,26.10
2018-03-18T10:53:41.712Z,15.80
2018-03-18T10:56:15.774Z,31.20
2018-03-18T10:58:50.701Z,18.53
2018-03-18T11:01:30.801Z,17.03
2018-03-18T11:04:18.073Z,14.50
2018-03-18T11:06:52.715Z,18.30
2018-03-18T11:09:27.766Z,15.83
2018-03-18T11:12:01.654Z,17.50
2018-03-18T11:14:36.374Z,17.10
2018-03-18T11:17:10.461Z,19.30
2018-03-18T11:19:44.888Z,18.00
2018-03-18T11:22:20.117Z,16.07
2018-03-18T11:24:54.026Z,16.90
2018-03-18T11:27:28.002Z,15.60
2018-03-18T11:30:03.331Z,15.60
2018-03-18T11:32:38.378Z,15.77
2018-03-18T11:35:12.164Z,16.13
2018-03-18T11:37:46.014Z,16.93
2018-03-18T11:40:20.494Z,17.00
2018-03-18T11:42:54.282Z,17.07
2018-03-18T11:45:27.899Z,20.07
2018-03-18T11:48:02.659Z,15.27
2018-03-18T11:50:36.497Z,17.70
2018-03-18T11:53:10.357Z,16.13
2018-03-18T11:55:44.149Z,16.43
2018-03-18T11:58:18.040Z,16.87
2018-03-18T12:00:53.425Z,19.40
2018-03-18T12:03:27.614Z,15.77
2018-03-18T12:06:01.847Z,18.63
2018-03-18T12:08:47.665Z,20.40
2018-03-18T12:11:22.246Z,15.47
2018-03-18T12:13:56.101Z,17.10
2018-03-18T12:16:29.919Z,17.93
2018-03-18T12:19:04.366Z,14.47
2018-03-18T12:21:39.198Z,19.53
2018-03-18T12:24:13.169Z,17.17
2018-03-18T12:26:47.738Z,15.20
2018-03-18T12:29:22.778Z,16.30
2018-03-18T12:31:57.306Z,16.53
2018-03-18T12:34:31.910Z,16.20
2018-03-18T12:37:05.822Z,15.83
2018-03-18T12:39:51.930Z,14.70
2018-03-18T12:42:39.032Z,16.77
2018-03-18T12:45:13.059Z,16.50
2018-03-18T12:47:48.692Z,19.43
2018-03-18T12:50:23.048Z,17.07
2018-03-18T12:52:57.237Z,16.93
2018-03-18T12:55:31.159Z,19.17
2018-03-18T12:58:05.781Z,16.07
2018-03-18T13:00:39.686Z,17.63
2018-03-18T13:03:14.302Z,16.43
2018-03-18T13:05:48.532Z,13.47
2018-03-18T13:08:23.713Z,21.97
2018-03-18T13:10:57.727Z,17.67
2018-03-18T13:13:31.321Z,14.13
2018-03-18T13:16:05.132Z,18.87
2018-03-18T13:18:38.739Z,17.10
2018-03-18T13:21:12.781Z,20.30
2018-03-18T13:23:47.113Z,14.27
2018-03-18T13:26:21.018Z,15.67
2018-03-18T13:28:55.406Z,15.73
2018-03-18T13:31:29.545Z,17.77
2018-03-18T13:34:03.237Z,17.30
2018-03-18T13:36:38.186Z,15.13
2018-03-18T13:39:12.701Z,14.73
2018-03-18T13:41:46.509Z,17.97
2018-03-18T13:44:21.297Z,16.67
2018-03-18T13:46:55.090Z,15.37
2018-03-18T13:49:29.672Z,13.40
2018-03-18T13:52:03.824Z,16.37
2018-03-18T13:54:38.402Z,14.90
2018-03-18T13:57:12.913Z,15.37
2018-03-18T13:59:46.899Z,15.33
2018-03-18T14:02:21.503Z,16.73
2018-03-18T14:04:55.227Z,15.73
2018-03-18T14:07:29.282Z,14.87
2018-03-18T14:10:03.607Z,16.13
2018-03-18T14:12:38.186Z,16.07
2018-03-18T14:15:12.005Z,15.23
2018-03-18T14:17:45.753Z,15.20
2018-03-18T14:20:19.679Z,18.80
2018-03-18T14:22:53.759Z,21.47
2018-03-18T14:25:28.853Z,17.57
2018-03-18T14:28:02.952Z,19.90
2018-03-18T14:30:37.203Z,20.83
2018-03-18T14:33:12.359Z,18.17
2018-03-18T14:35:46.387Z,19.10
2018-03-18T14:38:20.359Z,18.90
2018-03-18T14:40:54.977Z,19.67
2018-03-18T14:43:29.503Z,16.13
2018-03-18T14:46:03.690Z,18.20
2018-03-18T14:48:39.176Z,18.33
2018-03-18T14:51:12.855Z,20.13
2018-03-18T14:53:47.962Z,21.90
2018-03-18T14:56:23.037Z,20.10
2018-03-18T14:58:57.993Z,17.07
2018-03-18T15:01:31.821Z,20.97
2018-03-18T15:04:05.613Z,22.90
2018-03-18T15:06:40.922Z,25.00
2018-03-18T15:09:15.450Z,26.00
2018-03-18T15:11:49.969Z,24.17
2018-03-18T15:14:23.916Z,17.23
2018-03-18T15:16:57.810Z,15.90
2018-03-18T15:19:32.339Z,20.53
2018-03-18T15:22:06.282Z,24.60
2018-03-18T15:24:40.460Z,17.53
2018-03-18T15:27:14.654Z,20.80
2018-03-18T15:29:48.451Z,19.80
2018-03-18T15:32:22.353Z,16.80
2018-03-18T15:34:57.290Z,16.87
2018-03-18T15:37:31.607Z,17.67
2018-03-18T15:40:05.262Z,17.87
2018-03-18T15:42:38.858Z,16.60
2018-03-18T15:45:12.714Z,16.23
2018-03-18T15:47:48.084Z,16.57
2018-03-18T15:50:24.658Z,21.50
2018-03-18T15:52:58.755Z,16.10
2018-03-18T15:55:32.770Z,15.63
2018-03-18T15:58:07.879Z,15.10
2018-03-18T16:00:41.927Z,18.77
2018-03-18T16:03:15.716Z,15.50
2018-03-18T16:05:49.467Z,19.57
2018-03-18T16:08:25.081Z,20.23
2018-03-18T16:11:00.127Z,18.03
2018-03-18T16:13:34.420Z,18.60
2018-03-18T16:16:08.354Z,18.97
2018-03-18T16:18:43.250Z,22.10
2018-03-18T16:21:17.711Z,18.07
2018-03-18T16:23:51.437Z,17.80
2018-03-18T16:26:25.213Z,22.40
2018-03-18T16:29:10.782Z,17.40
2018-03-18T16:31:45.074Z,17.47
2018-03-18T16:34:20.343Z,15.43
2018-03-18T16:36:54.432Z,17.20
2018-03-18T16:39:29.025Z,17.37
2018-03-18T16:42:03.806Z,15.60
2018-03-18T16:44:39.204Z,16.37
2018-03-18T16:47:13.466Z,17.60
2018-03-18T16:49:48.037Z,19.90
2018-03-18T16:52:22.687Z,14.87
2018-03-18T16:54:56.231Z,17.57
2018-03-18T16:57:30.838Z,13.60
2018-03-18T17:00:05.525Z,14.03
2018-03-18T17:02:39.706Z,15.00
2018-03-18T17:05:14.192Z,14.80
2018-03-18T17:07:49.775Z,16.17
2018-03-18T17:10:23.711Z,15.53
2018-03-18T17:12:57.569Z,13.53
2018-03-18T17:15:31.295Z,14.53
2018-03-18T17:18:05.360Z,15.40
2018-03-18T17:20:40.622Z,14.10
2018-03-18T17:23:15.409Z,15.93
2018-03-18T17:25:49.257Z,14.57
2018-03-18T17:28:23.854Z,12.97
2018-03-18T17:30:57.663Z,14.03
2018-03-18T17:33:31.774Z,15.57
2018-03-18T17:36:07.010Z,15.53
2018-03-18T17:38:41.436Z,14.73
2018-03-18T17:41:15.806Z,15.67
2018-03-18T17:43:49.589Z,15.17
2018-03-18T17:46:35.910Z,15.70
2018-03-18T17:49:22.777Z,15.27
2018-03-18T17:52:08.595Z,15.70
2018-03-18T17:54:55.486Z,11.20
2018-03-18T17:57:30.879Z,13.27
2018-03-18T18:00:04.935Z,14.60
2018-03-18T18:02:39.257Z,11.80
2018-03-18T18:05:14.033Z,15.90
2018-03-18T18:07:47.867Z,15.23
2018-03-18T18:10:22.025Z,15.20
2018-03-18T18:12:56.429Z,14.23
2018-03-18T18:15:30.364Z,15.03
2018-03-18T18:18:04.063Z,13.67
2018-03-18T18:20:38.038Z,13.97
2018-03-18T18:23:12.458Z,14.33
2018-03-18T18:25:46.537Z,16.73
2018-03-18T18:28:22.056Z,15.83
2018-03-18T18:30:55.957Z,15.60
2018-03-18T18:33:29.717Z,11.43
2018-03-18T18:36:03.481Z,15.17
2018-03-18T18:38:38.478Z,13.27
2018-03-18T18:41:13.098Z,13.43
2018-03-18T18:43:47.628Z,11.93
2018-03-18T18:46:22.229Z,13.10
2018-03-18T18:48:56.142Z,12.73
2018-03-18T18:51:30.657Z,13.90
2018-03-18T18:54:05.393Z,15.97
2018-03-18T18:56:39.710Z,11.93
2018-03-18T18:59:14.198Z,11.73
2018-03-18T19:01:47.957Z,13.53
2018-03-18T19:04:21.585Z,12.80
2018-03-18T19:06:56.374Z,13.40
2018-03-18T19:09:30.961Z,13.67
2018-03-18T19:12:04.710Z,11.67
2018-03-18T19:14:38.594Z,14.13
2018-03-18T19:17:12.821Z,15.60
2018-03-18T19:19:46.968Z,15.10
2018-03-18T19:22:21.038Z,13.63
2018-03-18T19:24:55.586Z,10.23
2018-03-18T19:27:30.431Z,11.77
2018-03-18T19:30:05.718Z,14.97
2018-03-18T19:32:39.770Z,17.33
2018-03-18T19:35:13.399Z,19.77
2018-03-18T19:37:48.106Z,14.37
2018-03-18T19:40:22.813Z,12.80
2018-03-18T19:42:57.650Z,17.33
2018-03-18T19:45:32.356Z,17.47
2018-03-18T19:48:07.794Z,12.20
2018-03-18T19:50:41.721Z,13.87
2018-03-18T19:53:15.663Z,17.23
2018-03-18T19:55:49.494Z,15.23
2018-03-18T19:58:23.766Z,14.03
2018-03-18T20:00:58.868Z,13.27
2018-03-18T20:03:32.918Z,15.60
2018-03-18T20:06:08.129Z,15.03
2018-03-18T20:08:42.205Z,12.67
2018-03-18T20:11:16.752Z,13.13
2018-03-18T20:13:51.693Z,13.10
2018-03-18T20:16:25.446Z,14.40
2018-03-18T20:19:00.193Z,12.50
2018-03-18T20:21:34.189Z,12.03
2018-03-18T20:24:09.493Z,14.00
2018-03-18T20:26:43.592Z,12.60
2018-03-18T20:29:18.817Z,12.23
2018-03-18T20:31:53.093Z,13.13
2018-03-18T20:34:27.823Z,13.80
2018-03-18T20:37:02.428Z,16.33
2018-03-18T20:39:36.418Z,12.70
2018-03-18T20:42:11.022Z,18.50
2018-03-18T20:44:45.805Z,16.03
2018-03-18T20:47:20.664Z,14.23
2018-03-18T20:49:55.125Z,18.80
2018-03-18T20:52:29.878Z,17.87
2018-03-18T20:55:04.574Z,16.10
2018-03-18T20:57:42.373Z,14.90
2018-03-18T21:00:17.317Z,16.63
2018-03-18T21:02:51.969Z,14.73
2018-03-18T21:05:25.809Z,15.73
2018-03-18T21:07:59.577Z,16.00
2018-03-18T21:10:34.173Z,17.17
2018-03-18T21:13:08.079Z,19.80
2018-03-18T21:15:43.020Z,18.30
2018-03-18T21:18:17.457Z,17.30
2018-03-18T21:20:52.242Z,15.00
2018-03-18T21:23:25.854Z,15.33
2018-03-18T21:25:59.910Z,20.17
2018-03-18T21:28:34.303Z,13.60
2018-03-18T21:31:08.364Z,13.93
2018-03-18T21:33:43.024Z,19.70
2018-03-18T21:36:18.451Z,14.23
2018-03-18T21:38:52.640Z,13.90
2018-03-18T21:41:26.899Z,16.37
2018-03-18T21:44:00.929Z,14.43
2018-03-18T21:46:35.650Z,16.33
2018-03-18T21:49:10.333Z,14.83
2018-03-18T21:51:45.942Z,17.67
2018-03-18T21:54:19.874Z,19.27
2018-03-18T21:56:54.575Z,15.20
2018-03-18T21:59:28.506Z,12.97
2018-03-18T22:02:03.164Z,14.13
2018-03-18T22:04:38.405Z,13.37
2018-03-18T22:07:12.435Z,12.30
2018-03-18T22:09:48.105Z,15.17
2018-03-18T22:12:22.179Z,14.10
2018-03-18T22:14:57.568Z,17.80
2018-03-18T22:17:31.289Z,13.70
2018-03-18T22:20:06.084Z,14.87
2018-03-18T22:22:40.343Z,16.53
2018-03-18T22:25:14.921Z,12.80
2018-03-18T22:27:49.449Z,11.80
2018-03-18T22:30:23.298Z,24.47
2018-03-18T22:33:02.248Z,21.63
2018-03-18T22:35:36.904Z,25.27
2018-03-18T22:38:11.432Z,18.60
2018-03-18T22:40:45.137Z,17.90
2018-03-18T22:43:19.954Z,17.37
2018-03-18T22:45:53.793Z,17.80
2018-03-18T22:48:28.449Z,18.67
2018-03-18T22:51:02.297Z,16.07
2018-03-18T22:53:36.384Z,13.97
2018-03-18T22:56:10.797Z,16.23
2018-03-18T22:58:44.813Z,15.60
2018-03-18T23:01:20.354Z,15.70
2018-03-18T23:03:55.007Z,14.17
2018-03-18T23:06:28.762Z,15.90
2018-03-18T23:09:02.793Z,13.47
2018-03-18T23:11:37.265Z,15.67
2018-03-18T23:14:11.224Z,17.97
2018-03-18T23:16:45.283Z,22.07
2018-03-18T23:19:19.360Z,36.63
2018-03-18T23:21:54.663Z,24.20
2018-03-18T23:24:29.018Z,30.77
2018-03-18T23:27:04.326Z,24.53
2018-03-18T23:29:38.576Z,17.37
2018-03-18T23:32:13.113Z,23.67
2018-03-18T23:34:46.824Z,18.73
2018-03-18T23:37:20.506Z,17.10
2018-03-18T23:39:54.808Z,20.13
2018-03-18T23:42:29.152Z,25.90
2018-03-18T23:45:02.975Z,15.80
2018-03-18T23:47:36.701Z,14.77
2018-03-18T23:50:10.754Z,17.80
2018-03-18T23:52:46.110Z,18.40
2018-03-18T23:55:20.182Z,16.13
2018-03-18T23:57:54.137Z,17.77
